Time;durP1;ratioP1;P1;durP2;ratioP2;P2;SDS_P1;SDS_P2;PMS_P1;PMS_P2;Temp;Humidity;BMP_temperature;BMP_pressure;BME280_temperature;BME280_humidity;BME280_pressure;Samples;Min_cycle;Max_cycle;Signal;HPM_P1;HPM_P2
2022/10/29 00:01:40;;;;;;;25.50;15.25;;;;;;;13.55;100.00;102129.00;5099018;28;20032;-74
2022/10/29 00:04:05;;;;;;;25.45;15.32;;;;;;;13.53;100.00;102119.41;5102141;28;20035;-75
2022/10/29 00:06:31;;;;;;;24.70;15.25;;;;;;;13.49;100.00;102112.50;5113131;28;20526;-74
2022/10/29 00:08:56;;;;;;;27.30;14.55;;;;;;;13.43;100.00;102107.34;5101996;28;20043;-74
2022/10/29 00:11:22;;;;;;;26.30;13.68;;;;;;;13.32;100.00;102100.53;5096866;28;20023;-74
2022/10/29 00:13:51;;;;;;;27.10;13.60;;;;;;;13.31;100.00;102101.41;5102659;28;20390;-74
2022/10/29 00:16:19;;;;;;;24.25;14.15;;;;;;;13.27;100.00;102098.84;5106584;28;20024;-74
2022/10/29 00:18:45;;;;;;;26.55;15.02;;;;;;;13.23;100.00;102099.75;5096250;28;20036;-74
2022/10/29 00:21:18;;;;;;;22.50;13.48;;;;;;;13.13;100.00;102099.03;5101401;28;20031;-74
2022/10/29 00:23:44;;;;;;;27.85;14.95;;;;;;;13.12;100.00;102107.78;5113182;28;20034;-74
2022/10/29 00:26:10;;;;;;;24.40;14.70;;;;;;;13.05;100.00;102108.75;5100238;28;20103;-74
2022/10/29 00:28:36;;;;;;;25.02;13.18;;;;;;;13.06;100.00;102107.84;5101286;28;20028;-74
2022/10/29 00:31:06;;;;;;;25.30;15.25;;;;;;;13.07;100.00;102115.66;5100656;28;20119;-74
2022/10/29 00:33:32;;;;;;;29.77;16.85;;;;;;;13.07;100.00;102110.44;5100843;28;20024;-74
2022/10/29 00:36:18;;;;;;;30.10;16.50;;;;;;;13.13;100.00;102110.34;5107107;28;20493;-74
2022/10/29 00:38:44;;;;;;;25.77;16.45;;;;;;;13.12;100.00;102110.41;5093629;28;20068;-75
2022/10/29 00:41:13;;;;;;;29.05;16.42;;;;;;;13.10;100.00;102112.16;5097818;28;20416;-74
2022/10/29 00:43:42;;;;;;;29.55;16.33;;;;;;;13.05;100.00;102100.91;5092958;28;20032;-74
2022/10/29 00:46:15;;;;;;;25.55;15.68;;;;;;;12.92;100.00;102109.81;5095801;28;20032;-74
2022/10/29 00:48:48;;;;;;;27.20;16.35;;;;;;;12.91;100.00;102119.38;5096001;28;20036;-74
2022/10/29 00:51:15;;;;;;;27.23;15.18;;;;;;;12.86;100.00;102119.44;5098382;28;20024;-75
2022/10/29 00:53:46;;;;;;;31.83;16.08;;;;;;;12.90;100.00;102122.91;5102157;28;20023;-74
2022/10/29 00:56:13;;;;;;;24.85;15.98;;;;;;;12.84;100.00;102123.81;5099657;28;20023;-75
2022/10/29 00:58:39;;;;;;;26.08;15.52;;;;;;;12.84;100.00;102118.59;5103709;28;20028;-74
2022/10/29 01:01:04;;;;;;;28.80;15.80;;;;;;;12.70;100.00;102104.81;5095359;28;20077;-74
2022/10/29 01:03:29;;;;;;;25.98;15.73;;;;;;;12.74;100.00;102114.38;5106483;28;20032;-74
2022/10/29 01:05:55;;;;;;;26.08;16.23;;;;;;;12.72;100.00;102123.09;5101391;28;20020;-74
2022/10/29 01:08:21;;;;;;;26.58;16.08;;;;;;;12.68;100.00;102124.03;5102771;28;20031;-74
2022/10/29 01:11:05;;;;;;;32.10;17.15;;;;;;;12.58;100.00;102107.56;5098452;28;20032;-74
2022/10/29 01:13:39;;;;;;;26.52;15.82;;;;;;;12.59;100.00;102104.97;5089962;28;20024;-74
2022/10/29 01:16:17;;;;;;;24.70;15.80;;;;;;;12.49;100.00;102091.97;5101044;28;20020;-74
2022/10/29 01:19:07;;;;;;;30.23;16.30;;;;;;;12.52;100.00;102105.03;5100979;28;20035;-74
2022/10/29 01:21:44;;;;;;;28.70;16.45;;;;;;;12.50;100.00;102088.50;5106551;28;20152;-74
2022/10/29 01:24:40;;;;;;;27.15;16.35;;;;;;;12.46;100.00;102086.78;5112483;28;20608;-74
2022/10/29 01:27:34;;;;;;;23.88;15.13;;;;;;;12.43;100.00;102098.16;5104905;28;20666;-74
2022/10/29 01:30:13;;;;;;;25.08;16.95;;;;;;;12.43;100.00;102094.69;5097055;28;20040;-74
2022/10/29 01:33:03;;;;;;;30.17;16.88;;;;;;;12.40;100.00;102091.22;5087577;28;20020;-74
2022/10/29 01:35:57;;;;;;;25.25;16.88;;;;;;;12.36;100.00;102081.69;5103354;28;20032;-74
2022/10/29 01:38:41;;;;;;;29.92;17.65;;;;;;;12.35;100.00;102081.69;5083031;28;20024;-74
2022/10/29 01:41:24;;;;;;;28.45;16.58;;;;;;;12.31;100.00;102080.00;5093279;28;20015;-74
2022/10/29 01:43:57;;;;;;;34.00;17.88;;;;;;;12.27;100.00;102084.41;5098597;28;20035;-74
2022/10/29 01:46:33;;;;;;;27.90;16.85;;;;;;;12.26;100.00;102080.06;5098250;28;20054;-74
2022/10/29 01:49:03;;;;;;;24.77;16.17;;;;;;;12.23;100.00;102073.97;5093261;28;20039;-74
2022/10/29 01:51:32;;;;;;;30.33;16.60;;;;;;;12.21;100.00;102066.16;5095539;28;20136;-74
2022/10/29 01:54:00;;;;;;;24.52;15.45;;;;;;;12.19;100.00;102057.44;5097664;28;20062;-74
2022/10/29 01:56:25;;;;;;;27.42;15.65;;;;;;;12.18;100.00;102058.34;5099782;28;20023;-74
2022/10/29 01:58:54;;;;;;;29.85;16.10;;;;;;;12.15;100.00;102056.63;5099752;28;20118;-74
2022/10/29 02:01:40;;;;;;;28.13;17.08;;;;;;;12.13;100.00;102060.13;5094905;28;20016;-74
2022/10/29 02:04:22;;;;;;;28.65;16.23;;;;;;;12.12;100.00;102061.00;5097530;28;20024;-74
2022/10/29 02:06:57;;;;;;;24.10;16.23;;;;;;;12.11;100.00;102056.69;5082799;28;20024;-73
2022/10/29 02:09:40;;;;;;;28.08;16.00;;;;;;;12.10;100.00;102058.44;5092850;28;20490;-74
2022/10/29 02:12:16;;;;;;;26.83;15.57;;;;;;;12.08;100.00;102059.31;5094695;28;20064;-74
2022/10/29 02:14:51;;;;;;;29.88;15.63;;;;;;;12.10;100.00;102058.44;5097703;28;20028;-74
2022/10/29 02:17:17;;;;;;;27.73;15.40;;;;;;;11.96;100.00;102028.94;5106559;28;20027;-74
2022/10/29 02:19:42;;;;;;;29.67;15.45;;;;;;;12.06;100.00;102048.88;5097917;28;20568;-74
2022/10/29 02:22:08;;;;;;;26.98;15.57;;;;;;;12.03;100.00;102048.91;5104738;28;20055;-74
2022/10/29 02:24:33;;;;;;;24.50;15.63;;;;;;;12.02;100.00;102049.78;5091206;28;20036;-74
2022/10/29 02:26:58;;;;;;;30.95;15.68;;;;;;;12.00;100.00;102035.00;5092361;28;20491;-74
2022/10/29 02:29:24;;;;;;;24.50;14.73;;;;;;;12.05;100.00;102041.06;5091339;28;20024;-74
2022/10/29 02:31:49;;;;;;;23.55;15.63;;;;;;;12.05;100.00;102028.84;5090738;28;20032;-74
2022/10/29 02:34:14;;;;;;;27.88;15.52;;;;;;;12.05;100.00;102030.59;5090656;28;20020;-74
2022/10/29 02:36:39;;;;;;;21.67;14.73;;;;;;;12.03;100.00;102016.66;5091393;28;20032;-74
2022/10/29 02:39:05;;;;;;;23.48;15.00;;;;;;;12.02;100.00;102020.19;5090340;28;20039;-74
2022/10/29 02:41:30;;;;;;;29.50;15.35;;;;;;;11.95;100.00;102014.16;5089259;28;20045;-74
2022/10/29 02:43:55;;;;;;;22.63;14.13;;;;;;;12.00;100.00;102019.31;5090999;28;20024;-74
2022/10/29 02:46:22;;;;;;;27.00;14.90;;;;;;;11.92;100.00;102015.03;5091452;28;20375;-74
2022/10/29 02:48:48;;;;;;;27.50;15.00;;;;;;;11.95;100.00;102015.00;5090713;28;20112;-74
2022/10/29 02:51:15;;;;;;;27.77;15.07;;;;;;;11.97;100.00;102019.34;5090432;28;20479;-74
2022/10/29 02:53:41;;;;;;;27.60;13.77;;;;;;;11.97;100.00;102016.72;5089145;28;20056;-74
2022/10/29 02:56:07;;;;;;;28.85;15.05;;;;;;;11.95;100.00;102016.75;5092408;28;20027;-74
2022/10/29 02:58:32;;;;;;;26.10;14.85;;;;;;;11.92;100.00;102019.41;5095260;28;20039;-74
2022/10/29 03:00:58;;;;;;;28.25;14.48;;;;;;;11.89;100.00;102008.97;5094059;28;20028;-74
2022/10/29 03:03:23;;;;;;;29.95;15.60;;;;;;;11.89;100.00;102015.06;5092886;28;20141;-74
2022/10/29 03:05:49;;;;;;;25.48;14.60;;;;;;;11.88;100.00;102010.75;5094057;28;20540;-74
2022/10/29 03:08:15;;;;;;;24.98;14.30;;;;;;;11.85;100.00;101996.84;5091959;28;20028;-74
2022/10/29 03:10:40;;;;;;;23.42;13.35;;;;;;;11.83;100.00;102007.25;5093186;28;20066;-74
2022/10/29 03:13:05;;;;;;;27.55;15.00;;;;;;;11.79;100.00;102010.78;5092868;28;20032;-74
2022/10/29 03:15:30;;;;;;;27.02;14.18;;;;;;;11.77;100.00;101999.50;5092062;28;20028;-74
2022/10/29 03:17:55;;;;;;;22.83;14.35;;;;;;;11.69;100.00;101983.03;5094688;28;20032;-74
2022/10/29 03:20:21;;;;;;;24.80;14.30;;;;;;;11.72;100.00;101993.44;5091375;28;21056;-74
2022/10/29 03:22:46;;;;;;;24.70;14.65;;;;;;;11.66;100.00;101985.66;5092036;28;20119;-74
2022/10/29 03:25:11;;;;;;;25.05;14.13;;;;;;;11.67;100.00;101993.50;5092277;28;20028;-74
2022/10/29 03:27:41;;;;;;;24.90;14.38;;;;;;;11.68;100.00;101995.22;5093588;28;20033;-74
2022/10/29 03:30:08;;;;;;;25.27;14.40;;;;;;;11.67;100.00;101993.50;5094184;28;20031;-74
2022/10/29 03:32:33;;;;;;;24.70;14.18;;;;;;;11.65;100.00;101984.81;5092326;28;20028;-74
2022/10/29 03:34:59;;;;;;;25.27;14.98;;;;;;;11.57;100.00;101977.91;5093823;28;20035;-74
2022/10/29 03:37:24;;;;;;;24.08;14.52;;;;;;;11.63;100.00;101976.09;5092417;28;20410;-73
2022/10/29 03:39:49;;;;;;;27.10;14.43;;;;;;;11.67;100.00;101980.44;5091575;28;20020;-74
2022/10/29 03:42:14;;;;;;;27.35;15.13;;;;;;;11.66;100.00;101975.22;5093831;28;20027;-74
2022/10/29 03:44:40;;;;;;;28.35;15.05;;;;;;;11.68;100.00;101971.72;5093604;28;20031;-74
2022/10/29 03:47:07;;;;;;;23.58;14.43;;;;;;;11.71;100.00;101978.66;5093992;28;20040;-74
2022/10/29 03:49:32;;;;;;;28.42;15.07;;;;;;;11.76;100.00;101966.41;5094656;28;20085;-74
2022/10/29 03:51:57;;;;;;;32.10;15.52;;;;;;;11.80;100.00;101973.31;5092523;28;20360;-74
2022/10/29 03:54:23;;;;;;;26.90;14.65;;;;;;;11.80;100.00;101973.31;5091393;28;20032;-74
2022/10/29 03:56:48;;;;;;;26.63;14.68;;;;;;;11.80;100.00;101957.66;5093703;28;20100;-74
2022/10/29 03:59:13;;;;;;;27.73;13.50;;;;;;;11.81;100.00;101956.78;5093367;28;20016;-74
2022/10/29 04:01:38;;;;;;;23.40;14.27;;;;;;;11.76;100.00;101950.72;5093278;28;20032;-74
2022/10/29 04:04:04;;;;;;;28.13;14.23;;;;;;;11.79;100.00;101947.22;5091016;28;20387;-74
2022/10/29 04:06:29;;;;;;;22.35;13.85;;;;;;;11.77;100.00;101936.81;5093709;28;20023;-74
2022/10/29 04:08:54;;;;;;;27.88;14.45;;;;;;;11.78;100.00;101941.13;5090779;28;20031;-74
2022/10/29 04:11:21;;;;;;;21.70;14.52;;;;;;;11.77;100.00;101941.13;5092154;28;20028;-74
2022/10/29 04:13:46;;;;;;;25.25;14.50;;;;;;;11.78;100.00;101932.44;5094350;28;20020;-74
2022/10/29 04:16:11;;;;;;;27.55;14.65;;;;;;;11.79;100.00;101935.03;5092199;28;20387;-74
2022/10/29 04:18:37;;;;;;;22.90;14.10;;;;;;;11.89;100.00;101941.03;5093482;28;20115;-74
2022/10/29 04:21:02;;;;;;;23.77;14.93;;;;;;;11.89;100.00;101928.84;5093504;28;20541;-74
2022/10/29 04:23:28;;;;;;;29.05;15.57;;;;;;;11.89;100.00;101920.13;5092382;28;20352;-74
2022/10/29 04:25:58;;;;;;;27.50;15.05;;;;;;;11.95;100.00;101933.13;5090140;28;20430;-74
2022/10/29 04:28:24;;;;;;;28.10;14.90;;;;;;;11.95;100.00;101930.53;5092861;28;20036;-74
2022/10/29 04:30:49;;;;;;;27.52;15.30;;;;;;;11.95;100.00;101926.16;5091826;28;20071;-74
2022/10/29 04:33:15;;;;;;;27.20;16.15;;;;;;;11.97;100.00;101925.25;5092842;28;20506;-74
2022/10/29 04:35:40;;;;;;;24.33;14.60;;;;;;;11.94;100.00;101924.44;5090779;28;20024;-74
2022/10/29 04:38:10;;;;;;;26.08;14.77;;;;;;;11.91;100.00;101921.84;5092998;28;20479;-74
2022/10/29 04:40:36;;;;;;;31.90;15.48;;;;;;;11.92;100.00;101926.19;5078578;28;20375;-74
2022/10/29 04:43:01;;;;;;;27.15;14.38;;;;;;;11.88;100.00;101921.91;5092620;28;20047;-74
2022/10/29 04:45:26;;;;;;;31.48;15.40;;;;;;;11.83;100.00;101915.81;5091571;28;20043;-73
2022/10/29 04:48:02;;;;;;;27.38;15.00;;;;;;;11.81;100.00;101919.34;5090567;28;20071;-74
2022/10/29 04:50:28;;;;;;;26.92;16.25;;;;;;;11.85;100.00;101926.28;5092579;28;20578;-74
2022/10/29 04:52:57;;;;;;;28.13;16.83;;;;;;;11.85;100.00;101936.75;5091666;28;20076;-74
2022/10/29 04:55:23;;;;;;;32.53;18.25;;;;;;;11.90;100.00;101927.09;5090687;28;20028;-74
2022/10/29 04:57:49;;;;;;;31.58;17.27;;;;;;;11.90;100.00;101924.47;5092666;28;20517;-74
2022/10/29 05:00:14;;;;;;;29.42;17.58;;;;;;;11.90;100.00;101917.53;5092532;28;20107;-73
2022/10/29 05:02:40;;;;;;;34.17;17.00;;;;;;;11.83;100.00;101904.50;5092179;28;20103;-74
2022/10/29 05:05:05;;;;;;;34.58;16.23;;;;;;;11.90;100.00;101911.41;5089994;28;20145;-74
2022/10/29 05:07:30;;;;;;;33.92;16.33;;;;;;;11.88;100.00;101919.28;5089565;28;20036;-73
2022/10/29 05:09:56;;;;;;;26.27;15.65;;;;;;;11.86;100.00;101918.41;5091862;28;20532;-74
2022/10/29 05:12:21;;;;;;;29.83;17.17;;;;;;;11.81;100.00;101914.97;5092333;28;20031;-74
2022/10/29 05:14:46;;;;;;;26.92;15.70;;;;;;;11.79;100.00;101910.66;5090988;28;20028;-74
2022/10/29 05:17:11;;;;;;;30.38;17.25;;;;;;;11.84;100.00;101907.16;5091389;28;20118;-74
2022/10/29 05:19:37;;;;;;;36.20;17.58;;;;;;;11.82;100.00;101903.63;5091188;28;20384;-74
2022/10/29 05:22:02;;;;;;;33.20;17.15;;;;;;;11.85;100.00;101908.00;5081214;28;20168;-74
2022/10/29 05:24:27;;;;;;;32.85;17.10;;;;;;;11.81;100.00;101894.09;5091001;28;20028;-74
2022/10/29 05:26:53;;;;;;;39.50;17.90;;;;;;;11.90;100.00;101908.78;5091705;28;20040;-74
2022/10/29 05:29:18;;;;;;;30.95;16.35;;;;;;;11.89;100.00;101905.31;5091363;28;20483;-74
2022/10/29 05:31:43;;;;;;;29.10;17.40;;;;;;;11.92;100.00;101905.28;5091405;28;20031;-74
2022/10/29 05:34:08;;;;;;;27.65;16.63;;;;;;;11.93;100.00;101896.59;5092950;28;20024;-74
2022/10/29 05:36:34;;;;;;;30.42;16.95;;;;;;;11.95;100.00;101888.72;5089051;28;20028;-74
2022/10/29 05:38:59;;;;;;;29.70;17.05;;;;;;;11.94;100.00;101880.00;5091261;28;20038;-74
2022/10/29 05:41:24;;;;;;;33.58;16.38;;;;;;;12.05;100.00;101895.56;5090981;28;20387;-74
2022/10/29 05:43:50;;;;;;;32.50;16.98;;;;;;;12.08;100.00;101889.44;5091692;28;20084;-74
2022/10/29 05:46:15;;;;;;;28.40;16.85;;;;;;;12.03;100.00;101879.00;5090590;28;20032;-75
2022/10/29 05:48:41;;;;;;;29.08;16.60;;;;;;;12.04;100.00;101877.28;5091204;28;20039;-74
2022/10/29 05:51:06;;;;;;;30.80;17.10;;;;;;;12.07;100.00;101872.88;5091389;28;20032;-74
2022/10/29 05:53:31;;;;;;;31.77;17.75;;;;;;;12.02;100.00;101866.84;5089757;28;20024;-74
2022/10/29 05:55:58;;;;;;;35.38;17.75;;;;;;;12.05;100.00;101877.25;5090717;28;20034;-74
2022/10/29 05:58:23;;;;;;;35.72;18.10;;;;;;;12.08;100.00;101879.84;5090682;28;20066;-74
2022/10/29 06:00:49;;;;;;;35.00;18.58;;;;;;;12.13;100.00;101875.41;5090295;28;20051;-74
2022/10/29 06:03:17;;;;;;;38.20;18.15;;;;;;;12.14;100.00;101868.44;5089916;28;20070;-74
2022/10/29 06:05:43;;;;;;;34.78;17.88;;;;;;;12.14;100.00;101864.06;5090838;28;20069;-74
2022/10/29 06:08:08;;;;;;;37.03;19.55;;;;;;;12.24;100.00;101870.03;5090062;28;20028;-74
2022/10/29 06:10:34;;;;;;;40.30;20.20;;;;;;;12.29;100.00;101870.81;5090180;28;20051;-74
2022/10/29 06:12:59;;;;;;;34.28;19.98;;;;;;;12.37;100.00;101868.97;5091199;28;20020;-74
2022/10/29 06:15:25;;;;;;;37.78;18.73;;;;;;;12.42;100.00;101897.66;5089489;28;20382;-74
2022/10/29 06:17:50;;;;;;;42.83;19.98;;;;;;;12.45;100.00;101900.22;5091135;28;20028;-74
2022/10/29 06:20:18;;;;;;;35.90;18.27;;;;;;;12.50;100.00;101894.94;5089130;28;20059;-74
2022/10/29 06:22:43;;;;;;;37.92;19.38;;;;;;;12.48;100.00;101884.50;5090641;28;20387;-74
2022/10/29 06:25:09;;;;;;;33.28;19.08;;;;;;;12.52;100.00;101901.00;5090209;28;20016;-74
2022/10/29 06:27:35;;;;;;;31.15;18.73;;;;;;;12.57;100.00;101902.69;5092281;28;20384;-74
2022/10/29 06:30:00;;;;;;;34.90;19.63;;;;;;;12.56;100.00;101895.72;5092779;28;20035;-73
2022/10/29 06:32:26;;;;;;;32.05;18.50;;;;;;;12.58;100.00;101890.47;5094802;28;20024;-74
2022/10/29 06:34:51;;;;;;;35.20;19.38;;;;;;;12.56;100.00;101887.03;5096061;28;20097;-74
2022/10/29 06:37:16;;;;;;;39.90;19.15;;;;;;;12.48;100.00;101899.34;5093166;28;20032;-74
2022/10/29 06:39:41;;;;;;;39.50;20.08;;;;;;;12.48;100.00;101899.34;5093033;28;20352;-74
2022/10/29 06:42:07;;;;;;;37.47;18.90;;;;;;;12.37;100.00;101882.03;5094943;28;20032;-74
2022/10/29 06:44:32;;;;;;;36.78;17.77;;;;;;;12.33;100.00;101896.06;5094049;28;20471;-74
2022/10/29 06:46:57;;;;;;;38.25;18.88;;;;;;;12.37;100.00;101904.72;5094160;28;20132;-74
2022/10/29 06:49:23;;;;;;;38.50;20.20;;;;;;;12.43;100.00;101901.16;5095680;28;20077;-74
2022/10/29 06:51:48;;;;;;;36.80;18.65;;;;;;;12.40;100.00;101891.59;5092902;28;20031;-74
2022/10/29 06:54:13;;;;;;;37.88;19.63;;;;;;;12.45;100.00;101902.00;5092863;28;20107;-74
2022/10/29 06:56:38;;;;;;;38.85;19.10;;;;;;;12.48;100.00;101896.72;5092663;28;20383;-75
2022/10/29 06:59:04;;;;;;;40.15;19.35;;;;;;;12.54;100.00;101902.72;5096159;28;20023;-75
2022/10/29 07:01:31;;;;;;;39.05;19.73;;;;;;;12.59;100.00;101905.28;5094835;28;20501;-75
2022/10/29 07:03:57;;;;;;;38.13;20.00;;;;;;;12.65;100.00;101913.00;5095464;28;20030;-74
2022/10/29 07:06:23;;;;;;;36.40;18.67;;;;;;;12.62;100.00;101902.59;5095217;28;20103;-75
2022/10/29 07:08:48;;;;;;;35.80;19.05;;;;;;;12.65;100.00;101897.31;5092506;28;20115;-74
2022/10/29 07:11:14;;;;;;;39.40;19.88;;;;;;;12.68;100.00;101893.81;5091163;28;20048;-75
2022/10/29 07:13:39;;;;;;;34.17;19.15;;;;;;;12.68;100.00;101892.03;5094955;28;20024;-74
2022/10/29 07:16:05;;;;;;;32.15;18.85;;;;;;;12.60;100.00;101873.00;5093505;28;20020;-75
2022/10/29 07:18:31;;;;;;;37.28;19.77;;;;;;;12.76;100.00;101890.19;5094271;28;20019;-75
2022/10/29 07:20:56;;;;;;;35.50;19.50;;;;;;;12.81;100.00;101880.50;5093958;28;20059;-75
2022/10/29 07:23:22;;;;;;;42.53;19.90;;;;;;;12.83;100.00;101878.72;5093989;28;20063;-74
2022/10/29 07:25:47;;;;;;;43.40;20.17;;;;;;;12.84;100.00;101876.97;5094475;28;20410;-75
2022/10/29 07:28:19;;;;;;;40.70;19.23;;;;;;;12.88;100.00;101873.41;5091314;28;20127;-74
2022/10/29 07:30:45;;;;;;;36.75;19.02;;;;;;;12.92;100.00;101869.00;5093973;28;20031;-74
2022/10/29 07:33:10;;;;;;;36.15;17.27;;;;;;;12.89;100.00;101860.31;5093953;28;20058;-74
2022/10/29 07:35:36;;;;;;;42.38;19.27;;;;;;;13.02;100.00;101867.97;5093015;28;20387;-74
2022/10/29 07:38:03;;;;;;;32.72;19.45;;;;;;;13.04;100.00;101868.78;5094486;28;20020;-73
2022/10/29 07:40:29;;;;;;;39.80;19.73;;;;;;;13.03;100.00;101862.69;5091461;28;20093;-73
2022/10/29 07:42:54;;;;;;;38.85;18.52;;;;;;;13.07;100.00;101873.97;5094072;28;20039;-74
2022/10/29 07:45:20;;;;;;;43.15;19.55;;;;;;;13.12;100.00;101869.53;5093468;28;20039;-74
2022/10/29 07:47:45;;;;;;;34.53;18.58;;;;;;;13.15;100.00;101871.22;5094616;28;20048;-74
2022/10/29 07:50:11;;;;;;;34.05;18.95;;;;;;;13.22;100.00;101862.38;5093504;28;20060;-74
2022/10/29 07:52:38;;;;;;;34.58;18.58;;;;;;;13.31;100.00;101865.72;5092308;28;20480;-73
2022/10/29 07:55:04;;;;;;;34.92;17.65;;;;;;;13.32;100.00;101877.91;5092049;28;20115;-74
2022/10/29 07:57:29;;;;;;;46.35;18.83;;;;;;;13.36;100.00;101876.09;5089851;28;20554;-74
2022/10/29 07:59:54;;;;;;;36.60;18.45;;;;;;;13.44;100.00;101865.47;5094011;28;20024;-74
2022/10/29 08:02:20;;;;;;;33.92;19.88;;;;;;;13.59;100.00;101871.28;5093894;28;20478;-74
2022/10/29 08:04:45;;;;;;;32.28;17.73;;;;;;;13.73;100.00;101872.75;5089730;28;20028;-74
2022/10/29 08:07:10;;;;;;;30.13;17.95;;;;;;;13.91;100.00;101861.03;5094077;28;20027;-74
2022/10/29 08:09:35;;;;;;;33.90;18.65;;;;;;;14.07;100.00;101854.56;5093682;28;20028;-75
2022/10/29 08:12:01;;;;;;;29.52;16.40;;;;;;;14.22;100.00;101856.88;5091192;28;20043;-74
2022/10/29 08:14:26;;;;;;;33.42;16.38;;;;;;;14.33;100.00;101861.00;5093506;28;20027;-74
2022/10/29 08:16:53;;;;;;;25.27;14.88;;;;;;;14.42;100.00;101856.41;5094198;28;20126;-74
2022/10/29 08:19:19;;;;;;;30.15;14.13;;;;;;;14.45;100.00;101858.06;5092116;28;20027;-74
2022/10/29 08:21:44;;;;;;;29.63;14.95;;;;;;;14.43;100.00;101847.63;5092759;28;20031;-73
2022/10/29 08:24:10;;;;;;;30.42;16.00;;;;;;;14.51;100.00;101852.72;5090856;28;20034;-73
2022/10/29 08:26:35;;;;;;;23.92;15.10;;;;;;;14.49;100.00;101847.50;5093273;28;20028;-74
2022/10/29 08:29:01;;;;;;;29.05;14.65;;;;;;;14.43;100.00;101852.03;5093794;28;20030;-74
2022/10/29 08:31:26;;;;;;;29.92;14.95;;;;;;;14.45;100.00;101850.19;5089986;28;20043;-74
2022/10/29 08:33:51;;;;;;;28.88;15.95;;;;;;;14.54;100.00;101852.66;5092699;28;20024;-74
2022/10/29 08:36:16;;;;;;;27.67;14.75;;;;;;;14.67;100.00;101855.84;5093728;28;20024;-73
2022/10/29 08:38:42;;;;;;;27.60;14.65;;;;;;;14.84;100.00;101852.78;5092159;28;20417;-73
2022/10/29 08:41:31;;;;;;;28.50;14.60;;;;;;;15.01;100.00;101861.13;5095652;28;20038;-73
2022/10/29 08:44:24;;;;;;;21.45;13.88;;;;;;;15.18;100.00;101852.81;5093606;28;20391;-74
2022/10/29 08:47:13;;;;;;;27.88;13.70;;;;;;;15.39;100.00;101851.34;5093991;28;20044;-73
2022/10/29 08:50:22;;;;;;;26.17;13.30;;;;;;;15.54;100.00;101844.81;5098994;28;20494;-80
2022/10/29 08:52:50;;;;;;;24.17;11.02;;;;;;;15.62;100.00;101838.41;5099974;28;20019;-80
2022/10/29 08:55:21;;;;;;;20.50;11.35;;;;;;;15.75;100.00;101846.00;5101018;28;20043;-72
2022/10/29 08:57:52;;;;;;;26.88;11.95;;;;;;;15.79;100.00;101845.84;5093831;28;20035;-73
2022/10/29 09:00:20;;;;;;;23.63;10.43;;;;;;;15.80;100.00;101841.47;5098756;28;20099;-74
2022/10/29 09:02:45;;;;;;;21.75;10.45;;;;;;;15.84;100.00;101837.84;5110333;28;20028;-73
2022/10/29 09:05:13;;;;;;;21.30;11.18;;;;;;;15.98;100.00;101838.28;5105118;28;20028;-73
2022/10/29 09:08:24;;;;;;;20.67;11.25;;;;;;;16.16;100.00;101839.50;5112838;28;20020;-73
2022/10/29 09:10:53;;;;;;;24.33;10.10;;;;;;;16.37;100.00;101828.28;5083046;28;20096;-73
2022/10/29 09:13:31;;;;;;;17.92;11.70;;;;;;;16.53;100.00;101836.56;5113163;28;20094;-73
2022/10/29 09:16:28;;;;;;;19.58;9.35;;;;;;;16.68;100.00;101844.88;5113516;28;20027;-73
2022/10/29 09:18:59;;;;;;;20.13;9.15;;;;;;;16.75;100.00;101835.91;5106946;28;20071;-73
2022/10/29 09:21:36;;;;;;;18.15;8.52;;;;;;;16.84;100.00;101840.88;5112464;28;20023;-74
2022/10/29 09:24:12;;;;;;;17.88;9.23;;;;;;;16.87;100.00;101843.34;5113545;28;20027;-73
2022/10/29 09:26:57;;;;;;;17.92;8.88;;;;;;;16.87;100.00;101842.50;5113390;28;20386;-74
2022/10/29 09:29:31;;;;;;;19.10;9.07;;;;;;;16.85;100.00;101834.66;5112198;28;20028;-73
2022/10/29 09:32:04;;;;;;;16.17;8.25;;;;;;;16.82;100.00;101816.34;5108183;28;20047;-73
2022/10/29 09:34:36;;;;;;;17.00;8.80;;;;;;;16.75;100.00;101828.00;5092865;28;20081;-74
2022/10/29 09:37:12;;;;;;;20.53;8.63;;;;;;;16.71;100.00;101828.94;5092978;28;20069;-73
2022/10/29 09:39:40;;;;;;;18.00;8.02;;;;;;;16.68;100.00;101821.19;5092833;28;20757;-73
2022/10/29 09:42:15;;;;;;;13.20;8.88;;;;;;;16.72;100.00;101822.78;5091937;28;20016;-74
2022/10/29 09:44:56;;;;;;;21.13;8.32;;;;;;;16.83;100.00;101824.16;5092718;28;20028;-74
2022/10/29 09:47:34;;;;;;;17.83;8.00;;;;;;;17.00;100.00;101818.34;5092283;28;20093;-74
2022/10/29 09:50:15;;;;;;;19.55;8.95;;;;;;;17.18;100.00;101811.56;5092116;28;20038;-74
2022/10/29 09:52:42;;;;;;;13.65;7.45;;;;;;;17.37;100.00;101810.91;5080507;28;20367;-73
2022/10/29 09:55:17;;;;;;;15.75;7.68;;;;;;;17.53;100.00;101807.66;5092552;28;20112;-73
2022/10/29 09:57:42;;;;;;;23.35;7.40;;;;;;;17.60;100.00;101795.09;5091238;28;20430;-73
2022/10/29 10:00:24;;;;;;;16.02;7.20;;;;;;;17.68;100.00;101800.06;5092645;28;20463;-74
2022/10/29 10:03:29;;;;;;;15.05;7.05;;;;;;;17.85;100.00;101799.44;5091872;28;20050;-74
2022/10/29 10:06:08;;;;;;;18.67;7.10;;;;;;;17.92;100.00;101799.16;5029301;28;20043;-74
2022/10/29 10:09:03;;;;;;;18.63;6.82;;;;;;;17.82;100.00;101789.91;5096512;28;20028;-74
2022/10/29 10:11:39;;;;;;;17.15;7.45;;;;;;;17.71;100.00;101789.41;5082299;28;20073;-74
2022/10/29 10:14:15;;;;;;;15.70;7.07;;;;;;;17.57;100.00;101787.28;5096424;28;20103;-74
2022/10/29 10:16:41;;;;;;;13.52;6.93;;;;;;;17.42;100.00;101793.97;5096562;28;20024;-74
2022/10/29 10:19:22;;;;;;;14.52;6.85;;;;;;;17.39;100.00;101793.25;5095893;28;20077;-74
2022/10/29 10:21:58;;;;;;;18.10;6.75;;;;;;;17.37;100.00;101790.69;5083780;28;20024;-74
2022/10/29 10:24:31;;;;;;;17.15;7.03;;;;;;;17.33;100.00;101789.06;5095200;28;20101;-74
2022/10/29 10:26:56;;;;;;;12.57;6.70;;;;;;;17.35;100.00;101791.63;5096472;28;20043;-73
2022/10/29 10:29:24;;;;;;;16.45;6.68;;;;;;;17.36;100.00;101802.13;5096082;28;20464;-74
2022/10/29 10:32:14;;;;;;;12.82;6.30;;;;;;;17.32;100.00;101787.34;5095562;28;20020;-73
2022/10/29 10:34:40;;;;;;;18.10;6.85;;;;;;;17.33;100.00;101778.53;5094971;28;20020;-74
2022/10/29 10:37:08;;;;;;;18.48;7.03;;;;;;;17.38;100.00;101797.66;5096384;28;20099;-74
2022/10/29 10:39:51;;;;;;;17.95;6.63;;;;;;;17.36;100.00;101775.75;5095090;28;20384;-73
2022/10/29 10:42:25;;;;;;;14.93;6.47;;;;;;;17.53;100.00;101780.44;5083491;28;20379;-74
2022/10/29 10:44:56;;;;;;;16.90;6.28;;;;;;;17.64;100.00;101782.66;5095925;28;20036;-74
2022/10/29 10:47:26;;;;;;;14.15;6.45;;;;;;;17.74;100.00;101778.75;5094899;28;20040;-74
2022/10/29 10:49:51;;;;;;;21.85;5.60;;;;;;;17.77;98.49;101768.09;5092979;28;20028;-76
2022/10/29 10:52:30;;;;;;;17.25;6.22;;;;;;;17.94;100.00;101765.66;5094979;28;20018;-76
2022/10/29 10:55:06;;;;;;;25.58;6.65;;;;;;;18.08;97.80;101766.88;5095408;28;20036;-77
2022/10/29 10:57:38;;;;;;;15.93;5.78;;;;;;;18.21;95.12;101762.81;5082503;28;20032;-77
2022/10/29 11:00:35;;;;;;;17.48;6.22;;;;;;;18.27;99.27;101757.31;5094462;28;20028;-76
2022/10/29 11:03:07;;;;;;;20.60;6.13;;;;;;;18.37;97.06;101757.78;5095045;28;20051;-76
2022/10/29 11:06:18;;;;;;;15.70;6.85;;;;;;;18.44;98.60;101764.50;5095046;28;20020;-76
2022/10/29 11:08:51;;;;;;;12.55;6.18;;;;;;;18.58;95.23;101766.59;5089630;28;20554;-76
2022/10/29 11:11:26;;;;;;;17.20;6.63;;;;;;;18.77;94.62;101762.28;5094207;28;20016;-77
2022/10/29 11:13:57;;;;;;;14.00;7.05;;;;;;;19.02;91.62;101756.78;5094610;28;20085;-76